sim
Sign-in with your pilot id or email,
or register
Callsign
Passwort

Schedule Details

Flight Number: DLH2201 (1)
Departure: Dusseldorf International Airport (EDDL) at 08:50
Arrival: Munich Airport (EDDM) at 10:00
Route: Lufthansa Passenger Schedule. Enter filed route here before submitting Pirep.

Weather Information
Getting current METAR information for EDDL 192120Z 06003KT CAVOK 14/06 Q1017 NOSIG
Getting current METAR information for EDDM 192120Z 32002KT CAVOK 11/10 Q1018 NOSIG

Schedule Frequency

Route Map